createdAt,value
2022-08-27T00:00:33.168Z,100327.19
2022-08-27T00:02:59.712Z,100323.44
2022-08-27T00:05:26.048Z,100322.69
2022-08-27T00:07:52.485Z,100321.41
2022-08-27T00:10:23.118Z,100310.81
2022-08-27T00:12:49.537Z,100308.00
2022-08-27T00:15:17.876Z,100296.78
2022-08-27T00:17:45.807Z,100322.22
2022-08-27T00:20:16.312Z,100325.41
2022-08-27T00:22:43.105Z,100324.72
2022-08-27T00:25:10.646Z,100320.59
2022-08-27T00:27:37.348Z,100320.94
2022-08-27T00:30:06.390Z,100316.94
2022-08-27T00:32:32.850Z,100329.63
2022-08-27T00:34:59.217Z,100330.81
2022-08-27T00:37:25.622Z,100323.63
2022-08-27T00:39:52.118Z,100321.63
2022-08-27T00:42:18.571Z,100321.63
2022-08-27T00:44:45.005Z,100312.09
2022-08-27T00:47:17.000Z,100316.94
2022-08-27T00:49:50.629Z,100309.19
2022-08-27T00:52:33.180Z,100323.16
2022-08-27T00:55:11.830Z,100321.03
2022-08-27T00:57:39.565Z,100318.59
2022-08-27T01:00:13.709Z,100318.34
2022-08-27T01:02:42.016Z,100322.69
2022-08-27T01:05:12.837Z,100321.88
2022-08-27T01:07:41.396Z,100322.94
2022-08-27T01:10:12.193Z,100330.69
2022-08-27T01:12:39.300Z,100326.44
2022-08-27T01:15:10.062Z,100323.38
2022-08-27T01:17:39.158Z,100307.06
2022-08-27T01:20:09.929Z,100324.94
2022-08-27T01:23:17.425Z,100315.63
2022-08-27T01:25:45.258Z,100322.34
2022-08-27T01:28:13.593Z,100316.72
2022-08-27T01:30:41.067Z,100320.97
2022-08-27T01:33:17.265Z,100323.19
2022-08-27T01:35:47.249Z,100299.47
2022-08-27T01:38:18.836Z,100320.84
2022-08-27T01:40:47.992Z,100299.59
2022-08-27T01:43:14.556Z,100301.69
2022-08-27T01:45:48.305Z,100307.09
2022-08-27T01:48:16.769Z,100306.50
2022-08-27T01:50:44.093Z,100300.75
2022-08-27T01:53:16.841Z,100299.00
2022-08-27T01:55:47.552Z,100301.13
2022-08-27T01:58:15.996Z,100285.38
2022-08-27T02:00:46.605Z,100297.22
2022-08-27T02:03:13.230Z,100289.47
2022-08-27T02:05:44.842Z,100294.75
2022-08-27T02:08:12.800Z,100296.28
2022-08-27T02:10:40.150Z,100299.59
2022-08-27T02:13:08.141Z,100295.50
2022-08-27T02:15:36.732Z,100293.59
2022-08-27T02:18:05.394Z,100294.88
2022-08-27T02:20:31.964Z,100285.59
2022-08-27T02:22:58.479Z,100297.81
2022-08-27T02:25:27.008Z,100278.06
2022-08-27T02:27:53.450Z,100289.81
2022-08-27T02:30:23.807Z,100282.66
2022-08-27T02:32:52.862Z,100280.78
2022-08-27T02:35:21.582Z,100279.63
2022-08-27T02:37:48.690Z,100285.84
2022-08-27T02:40:17.851Z,100289.13
2022-08-27T02:42:45.636Z,100279.16
2022-08-27T02:45:13.627Z,100284.28
2022-08-27T02:47:40.196Z,100288.31
2022-08-27T02:50:07.845Z,100284.31
2022-08-27T02:52:34.815Z,100290.06
2022-08-27T02:55:01.758Z,100297.22
2022-08-27T02:57:29.168Z,100286.75
2022-08-27T02:59:58.772Z,100293.94
2022-08-27T03:02:25.773Z,100224.97
2022-08-27T03:04:54.153Z,100282.91
2022-08-27T03:07:23.436Z,100283.34
2022-08-27T03:09:51.044Z,100286.19
2022-08-27T03:12:17.417Z,100280.09
2022-08-27T03:14:44.521Z,100285.72
2022-08-27T03:17:29.277Z,100286.41
2022-08-27T03:19:55.654Z,100285.25
2022-08-27T03:22:22.037Z,100281.97
2022-08-27T03:24:48.476Z,100277.59
2022-08-27T03:27:15.380Z,100288.19
2022-08-27T03:29:41.781Z,100283.34
2022-08-27T03:32:08.140Z,100287.25
2022-08-27T03:34:34.554Z,100284.19
2022-08-27T03:37:01.392Z,100288.31
2022-08-27T03:39:27.848Z,100287.38
2022-08-27T03:41:55.763Z,100286.56
2022-08-27T03:44:23.999Z,100280.31
2022-08-27T03:46:51.791Z,100277.59
2022-08-27T03:49:21.336Z,100278.44
2022-08-27T03:51:49.607Z,100265.47
2022-08-27T03:54:16.234Z,100276.78
2022-08-27T03:56:42.594Z,100276.22
2022-08-27T03:59:09.159Z,100278.69
2022-08-27T04:01:36.002Z,100259.53
2022-08-27T04:04:03.081Z,100274.66
2022-08-27T04:06:29.448Z,100286.69
2022-08-27T04:08:56.193Z,100281.50
2022-08-27T04:11:22.575Z,100285.72
2022-08-27T04:13:48.930Z,100283.97
2022-08-27T04:16:15.420Z,100277.94
2022-08-27T04:18:41.836Z,100289.81
2022-08-27T04:21:11.227Z,100292.97
2022-08-27T04:23:39.109Z,100293.44
2022-08-27T04:26:06.949Z,100283.78
2022-08-27T04:28:37.896Z,100304.81
2022-08-27T04:31:05.364Z,100298.44
2022-08-27T04:33:32.413Z,100298.44
2022-08-27T04:36:00.937Z,100305.47
2022-08-27T04:38:27.762Z,100286.69
2022-08-27T04:41:12.509Z,100303.38
2022-08-27T04:43:38.878Z,100300.91
2022-08-27T04:46:05.386Z,100310.56
2022-08-27T04:48:32.670Z,100312.56
2022-08-27T04:50:59.242Z,100312.06
2022-08-27T04:53:25.812Z,100312.06
2022-08-27T04:55:54.922Z,100314.28
2022-08-27T04:58:23.040Z,100318.38
2022-08-27T05:00:55.706Z,100320.03
2022-08-27T05:03:24.102Z,100322.59
2022-08-27T05:05:51.674Z,100300.88
2022-08-27T05:08:18.096Z,100322.63
2022-08-27T05:10:47.924Z,100325.56
2022-08-27T05:13:15.528Z,100328.38
2022-08-27T05:15:41.941Z,100333.41
2022-08-27T05:18:08.733Z,100335.50
2022-08-27T05:20:48.605Z,100335.97
2022-08-27T05:23:17.928Z,100336.22
2022-08-27T05:25:47.617Z,100341.13
2022-08-27T05:28:15.139Z,100339.59
2022-08-27T05:30:44.171Z,100341.72
2022-08-27T05:33:18.837Z,100336.75
2022-08-27T05:35:48.510Z,100333.69
2022-08-27T05:38:15.817Z,100320.44
2022-08-27T05:40:43.755Z,100351.06
2022-08-27T05:43:12.271Z,100342.97
2022-08-27T05:45:44.004Z,100339.91
2022-08-27T05:48:13.132Z,100344.03
2022-08-27T05:50:40.577Z,100326.66
2022-08-27T05:53:07.895Z,100337.94
2022-08-27T05:55:43.538Z,100335.00
2022-08-27T05:58:30.534Z,100336.09
2022-08-27T06:01:10.180Z,100342.28
2022-08-27T06:03:37.977Z,100345.91
2022-08-27T06:06:11.024Z,100339.91
2022-08-27T06:08:38.204Z,100346.69
2022-08-27T06:11:06.644Z,100339.63
2022-08-27T06:13:35.154Z,100340.22
2022-08-27T06:16:04.660Z,100346.25
2022-08-27T06:18:34.606Z,100350.44
2022-08-27T06:21:01.064Z,100337.63
2022-08-27T06:23:28.751Z,100345.25
2022-08-27T06:25:56.823Z,100349.47
2022-08-27T06:28:25.153Z,100353.44
2022-08-27T06:30:52.778Z,100351.34
2022-08-27T06:33:21.110Z,100352.75
2022-08-27T06:35:47.497Z,100358.53
2022-08-27T06:38:13.859Z,100356.19
2022-08-27T06:40:41.999Z,100357.84
2022-08-27T06:43:08.514Z,100354.34
2022-08-27T06:45:39.054Z,100361.22
2022-08-27T06:48:05.645Z,100346.31
2022-08-27T06:50:40.398Z,100358.31
2022-08-27T06:53:07.260Z,100351.88
2022-08-27T06:55:41.437Z,100354.78
2022-08-27T06:58:07.963Z,100353.22
2022-08-27T07:00:34.360Z,100356.34
2022-08-27T07:03:01.557Z,100356.13
2022-08-27T07:05:27.898Z,100355.31
2022-08-27T07:07:54.360Z,100347.75
2022-08-27T07:10:20.745Z,100352.25
2022-08-27T07:12:47.110Z,100346.28
2022-08-27T07:15:13.519Z,100346.34
2022-08-27T07:17:41.052Z,100343.56
2022-08-27T07:20:08.500Z,100344.38
2022-08-27T07:22:34.833Z,100344.38
2022-08-27T07:25:01.188Z,100316.81
2022-08-27T07:27:27.548Z,100344.22
2022-08-27T07:29:53.994Z,100352.38
2022-08-27T07:32:20.353Z,100341.78
2022-08-27T07:34:46.722Z,100356.16
2022-08-27T07:37:14.863Z,100354.63
2022-08-27T07:39:41.229Z,100355.47
2022-08-27T07:42:26.746Z,100340.53
2022-08-27T07:44:53.137Z,100345.81
2022-08-27T07:47:19.684Z,100346.44
2022-08-27T07:49:46.067Z,100352.44
2022-08-27T07:52:16.109Z,100364.78
2022-08-27T07:54:42.856Z,100361.38
2022-08-27T07:57:11.258Z,100361.28
2022-08-27T07:59:38.240Z,100360.31
2022-08-27T08:02:04.764Z,100359.16
2022-08-27T08:04:31.212Z,100366.19
2022-08-27T08:06:57.550Z,100371.38
2022-08-27T08:09:24.923Z,100365.03
2022-08-27T08:11:52.261Z,100358.69
2022-08-27T08:14:19.644Z,100368.22
2022-08-27T08:16:46.352Z,100352.22
2022-08-27T08:19:13.020Z,100365.03
2022-08-27T08:21:39.467Z,100374.19
2022-08-27T08:24:06.219Z,100373.25
2022-08-27T08:26:32.590Z,100375.03
2022-08-27T08:29:00.613Z,100381.84
2022-08-27T08:31:27.399Z,100380.91
2022-08-27T08:33:54.712Z,100381.59
2022-08-27T08:36:21.158Z,100390.41
2022-08-27T08:38:48.241Z,100389.03
2022-08-27T08:41:35.018Z,100366.56
2022-08-27T08:44:08.619Z,100371.72
2022-08-27T08:46:45.990Z,100391.63
2022-08-27T08:49:38.410Z,100392.91
2022-08-27T08:52:30.637Z,100392.06
2022-08-27T08:55:17.428Z,100399.22
2022-08-27T08:57:53.390Z,100396.19
2022-08-27T09:00:19.804Z,100400.03
2022-08-27T09:02:54.579Z,100394.81
2022-08-27T09:05:27.179Z,100402.88
2022-08-27T09:08:21.608Z,100413.78
2022-08-27T09:10:58.900Z,100414.44
2022-08-27T09:13:31.105Z,100427.38
2022-08-27T09:16:01.103Z,100420.88
2022-08-27T09:18:27.812Z,100421.50
2022-08-27T09:21:09.928Z,100410.88
2022-08-27T09:23:53.244Z,100418.97
2022-08-27T09:26:26.653Z,100416.22
2022-08-27T09:29:16.499Z,100419.97
2022-08-27T09:32:09.384Z,100413.63
2022-08-27T09:34:39.394Z,100408.94
2022-08-27T09:37:15.313Z,100419.72
2022-08-27T09:39:50.381Z,100419.16
2022-08-27T09:42:31.483Z,100418.53
2022-08-27T09:44:58.686Z,100414.03
2022-08-27T09:47:25.860Z,100415.53
2022-08-27T09:50:07.921Z,100417.94
2022-08-27T09:52:55.766Z,100414.41
2022-08-27T09:55:32.232Z,100422.72
2022-08-27T09:57:59.512Z,100427.88
2022-08-27T10:00:36.259Z,100426.97
2022-08-27T10:03:04.029Z,100425.00
2022-08-27T10:05:42.889Z,100428.47
2022-08-27T10:08:43.713Z,100429.31
2022-08-27T10:11:32.131Z,100423.97
2022-08-27T10:14:14.414Z,100430.25
2022-08-27T10:17:04.037Z,100425.03
2022-08-27T10:20:12.108Z,100425.06
2022-08-27T10:23:10.209Z,100426.03
2022-08-27T10:25:42.483Z,100425.22
2022-08-27T10:28:38.797Z,100428.03
2022-08-27T10:31:13.698Z,100430.84
2022-08-27T10:34:12.398Z,100410.97
2022-08-27T10:37:10.773Z,100426.09
2022-08-27T10:40:04.175Z,100440.19
2022-08-27T10:42:46.131Z,100427.63
2022-08-27T10:45:42.789Z,100431.75
2022-08-27T10:48:34.290Z,100431.41
2022-08-27T10:51:26.098Z,100436.59
2022-08-27T10:54:25.876Z,100435.91
2022-08-27T10:57:35.312Z,100431.88
2022-08-27T11:00:10.768Z,100431.06
2022-08-27T11:02:49.838Z,100426.78
2022-08-27T11:05:24.096Z,100408.16
2022-08-27T11:08:01.923Z,100411.28
2022-08-27T11:10:32.614Z,100433.31
2022-08-27T11:13:05.637Z,100432.19
2022-08-27T11:15:36.598Z,100429.72
2022-08-27T11:18:19.028Z,100429.16
2022-08-27T11:21:15.805Z,100423.06
2022-08-27T11:24:34.900Z,100436.59
2022-08-27T11:27:05.793Z,100425.69
2022-08-27T11:29:37.613Z,100417.56
2022-08-27T11:32:54.894Z,100416.66
2022-08-27T11:35:24.329Z,100415.94
2022-08-27T11:38:15.327Z,100420.28
2022-08-27T11:40:56.920Z,100423.78
2022-08-27T11:43:30.978Z,100399.19
2022-08-27T11:46:03.588Z,100427.91
2022-08-27T11:48:38.072Z,100425.84
2022-08-27T11:51:07.040Z,100428.47
2022-08-27T11:53:42.734Z,100427.41
2022-08-27T11:56:39.635Z,100423.34
2022-08-27T11:59:29.457Z,100408.00
2022-08-27T12:02:10.333Z,100425.34
2022-08-27T12:04:40.357Z,100425.97
2022-08-27T12:07:27.145Z,100423.13
2022-08-27T12:09:56.236Z,100425.22
2022-08-27T12:12:44.614Z,100419.81
2022-08-27T12:18:13.630Z,100421.16
2022-08-27T12:20:50.770Z,100426.34
2022-08-27T12:23:42.535Z,100431.22
2022-08-27T12:26:42.671Z,100425.91
2022-08-27T12:29:39.364Z,100426.84
2022-08-27T12:32:31.279Z,100421.22
2022-08-27T12:35:13.054Z,100430.56
2022-08-27T12:37:47.512Z,100424.84
2022-08-27T12:40:24.621Z,100432.88
2022-08-27T12:43:04.076Z,100427.25
2022-08-27T12:45:30.846Z,100426.56
2022-08-27T12:47:57.966Z,100420.47
2022-08-27T12:50:30.467Z,100412.00
2022-08-27T12:53:02.256Z,100413.97
2022-08-27T12:55:57.209Z,100409.69
2022-08-27T12:58:39.188Z,100400.34
2022-08-27T13:01:46.149Z,100422.53
2022-08-27T13:04:25.421Z,100410.00
2022-08-27T13:06:52.065Z,100410.91
2022-08-27T13:09:28.196Z,100406.56
2022-08-27T13:11:56.795Z,100398.56
2022-08-27T13:14:25.467Z,100392.75
2022-08-27T13:16:53.918Z,100398.78
2022-08-27T13:19:32.167Z,100394.44
2022-08-27T13:21:59.218Z,100400.41
2022-08-27T13:24:36.133Z,100392.81
2022-08-27T13:27:05.377Z,100389.00
2022-08-27T13:29:32.463Z,100389.03
2022-08-27T13:31:59.944Z,100389.69
2022-08-27T13:34:28.484Z,100386.47
2022-08-27T13:37:00.409Z,100392.53
2022-08-27T13:39:27.937Z,100393.09
2022-08-27T13:41:58.068Z,100362.97
2022-08-27T13:44:31.510Z,100389.09
2022-08-27T13:47:14.280Z,100388.50
2022-08-27T13:49:41.033Z,100384.16
2022-08-27T13:52:32.284Z,100386.00
2022-08-27T13:55:15.411Z,100385.25
2022-08-27T13:57:45.273Z,100379.19
2022-08-27T14:00:19.257Z,100377.03
2022-08-27T14:02:56.012Z,100377.66
2022-08-27T14:05:22.893Z,100371.63
2022-08-27T14:08:13.765Z,100379.44
2022-08-27T14:10:44.909Z,100363.28
2022-08-27T14:13:21.689Z,100385.59
2022-08-27T14:15:54.259Z,100377.19
2022-08-27T14:18:54.945Z,100378.81
2022-08-27T14:21:16.680Z,100378.63
2022-08-27T14:23:43.069Z,100379.72
2022-08-27T14:26:09.517Z,100384.59
2022-08-27T14:28:36.857Z,100380.25
2022-08-27T14:31:03.415Z,100385.13
2022-08-27T14:33:30.407Z,100379.66
2022-08-27T14:35:56.864Z,100378.50
2022-08-27T14:38:24.500Z,100377.50
2022-08-27T14:40:53.717Z,100375.63
2022-08-27T14:43:21.782Z,100358.66
2022-08-27T14:45:50.953Z,100373.19
2022-08-27T14:48:21.058Z,100362.28
2022-08-27T14:50:55.151Z,100385.19
2022-08-27T14:53:21.597Z,100376.72
2022-08-27T14:55:51.893Z,100374.28
2022-08-27T14:58:19.083Z,100375.38
2022-08-27T15:00:45.645Z,100385.91
2022-08-27T15:03:12.699Z,100386.88
2022-08-27T15:05:39.214Z,100385.00
2022-08-27T15:08:06.707Z,100383.84
2022-08-27T15:10:38.856Z,100378.09
2022-08-27T15:13:05.439Z,100386.47
2022-08-27T15:15:31.841Z,100365.69
2022-08-27T15:17:58.281Z,100387.47
2022-08-27T15:20:24.677Z,100386.91
2022-08-27T15:22:52.191Z,100384.81
2022-08-27T15:25:19.585Z,100381.78
2022-08-27T15:27:46.051Z,100384.25
2022-08-27T15:30:15.197Z,100387.25
2022-08-27T15:32:44.674Z,100382.91
2022-08-27T15:35:19.559Z,100347.13
2022-08-27T15:37:46.782Z,100384.81
2022-08-27T15:40:15.354Z,100385.63
2022-08-27T15:42:42.599Z,100385.63
2022-08-27T15:45:11.305Z,100379.84
2022-08-27T15:47:37.712Z,100381.94
2022-08-27T15:50:05.135Z,100394.13
2022-08-27T15:52:40.318Z,100395.50
2022-08-27T15:55:22.484Z,100379.94
2022-08-27T15:57:49.665Z,100383.44
2022-08-27T16:00:17.565Z,100390.50
2022-08-27T16:02:46.174Z,100388.88
2022-08-27T16:05:15.717Z,100395.28
2022-08-27T16:07:42.510Z,100391.47
2022-08-27T16:10:10.364Z,100392.13
2022-08-27T16:12:36.921Z,100390.97
2022-08-27T16:15:05.667Z,100379.09
2022-08-27T16:17:32.415Z,100385.47
2022-08-27T16:19:58.855Z,100382.16
2022-08-27T16:22:25.222Z,100378.03
2022-08-27T16:24:51.589Z,100380.56
2022-08-27T16:27:17.959Z,100372.50
2022-08-27T16:29:44.313Z,100381.84
2022-08-27T16:32:16.415Z,100381.84
2022-08-27T16:34:43.021Z,100383.44
2022-08-27T16:37:10.095Z,100389.09
2022-08-27T16:39:40.477Z,100376.53
2022-08-27T16:42:10.032Z,100381.97
2022-08-27T16:44:37.237Z,100378.69
2022-08-27T16:47:05.093Z,100380.59
2022-08-27T16:49:49.784Z,100376.56
2022-08-27T16:52:16.496Z,100377.38
2022-08-27T16:54:43.030Z,100373.84
2022-08-27T16:57:09.392Z,100372.44
2022-08-27T16:59:35.748Z,100374.34
2022-08-27T17:02:02.784Z,100362.13
2022-08-27T17:04:35.485Z,100370.84
2022-08-27T17:07:08.126Z,100378.69
2022-08-27T17:09:36.321Z,100366.06
2022-08-27T17:12:05.274Z,100369.28
2022-08-27T17:14:37.712Z,100368.44
2022-08-27T17:17:05.379Z,100351.81
2022-08-27T17:19:34.481Z,100371.44
2022-08-27T17:22:02.096Z,100371.72
2022-08-27T17:24:28.708Z,100371.97
2022-08-27T17:26:55.137Z,100376.84
2022-08-27T17:29:21.652Z,100376.78
2022-08-27T17:31:48.043Z,100377.28
2022-08-27T17:34:17.789Z,100369.91
2022-08-27T17:36:46.126Z,100378.56
2022-08-27T17:39:13.366Z,100384.00
2022-08-27T17:41:42.476Z,100383.50
2022-08-27T17:44:33.309Z,100375.53
2022-08-27T17:47:02.787Z,100373.88
2022-08-27T17:49:32.637Z,100378.44
2022-08-27T17:52:02.284Z,100382.50
2022-08-27T17:54:32.448Z,100385.22
2022-08-27T17:56:59.759Z,100394.41
2022-08-27T17:59:26.412Z,100383.25
2022-08-27T18:01:53.211Z,100384.56
2022-08-27T18:04:19.686Z,100369.91
2022-08-27T18:06:46.116Z,100396.69
2022-08-27T18:09:15.740Z,100400.16
2022-08-27T18:11:42.942Z,100401.00
2022-08-27T18:14:09.350Z,100403.72
2022-08-27T18:16:36.016Z,100402.31
2022-08-27T18:19:06.880Z,100398.78
2022-08-27T18:21:33.638Z,100398.78
2022-08-27T18:24:00.874Z,100396.88
2022-08-27T18:26:29.296Z,100390.56
2022-08-27T18:28:57.586Z,100401.75
2022-08-27T18:31:30.221Z,100394.91
2022-08-27T18:33:57.343Z,100406.84
2022-08-27T18:36:25.177Z,100419.31
2022-08-27T18:38:51.609Z,100407.34
2022-08-27T18:41:19.451Z,100407.09
2022-08-27T18:43:46.316Z,100414.44
2022-08-27T18:46:13.195Z,100419.25
2022-08-27T18:48:39.975Z,100417.06
2022-08-27T18:51:09.042Z,100413.19
2022-08-27T18:53:39.753Z,100412.63
2022-08-27T18:56:08.215Z,100412.06
2022-08-27T18:58:38.381Z,100426.94
2022-08-27T19:01:11.851Z,100415.50
2022-08-27T19:03:48.097Z,100425.06
2022-08-27T19:06:17.500Z,100412.63
2022-08-27T19:08:44.620Z,100416.97
2022-08-27T19:11:11.108Z,100417.16
2022-08-27T19:13:38.062Z,100412.88
2022-08-27T19:16:13.746Z,100424.88
2022-08-27T19:18:41.592Z,100420.75
2022-08-27T19:21:08.605Z,100436.47
2022-08-27T19:23:36.098Z,100433.19
2022-08-27T19:26:03.309Z,100418.97
2022-08-27T19:28:39.580Z,100428.72
2022-08-27T19:31:07.817Z,100431.97
2022-08-27T19:33:35.467Z,100436.53
2022-08-27T19:36:02.442Z,100442.19
2022-08-27T19:38:31.691Z,100438.91
2022-08-27T19:41:02.098Z,100439.00
2022-08-27T19:43:29.147Z,100445.28
2022-08-27T19:45:57.275Z,100448.22
2022-08-27T19:48:23.908Z,100428.22
2022-08-27T19:50:50.854Z,100443.28
2022-08-27T19:53:17.608Z,100434.50
2022-08-27T19:55:45.825Z,100443.84
2022-08-27T19:58:15.193Z,100450.69
2022-08-27T20:00:43.206Z,100450.09
2022-08-27T20:03:10.334Z,100441.88
2022-08-27T20:05:36.770Z,100450.09
2022-08-27T20:08:04.649Z,100448.72
2022-08-27T20:10:36.113Z,100441.63
2022-08-27T20:13:03.687Z,100447.06
2022-08-27T20:15:30.063Z,100450.00
2022-08-27T20:17:59.148Z,100445.34
2022-08-27T20:20:26.181Z,100440.88
2022-08-27T20:22:52.913Z,100440.97
2022-08-27T20:25:19.562Z,100446.38
2022-08-27T20:27:47.575Z,100450.53
2022-08-27T20:30:16.012Z,100431.09
2022-08-27T20:32:43.224Z,100419.84
2022-08-27T20:35:10.740Z,100445.09
2022-08-27T20:37:41.918Z,100448.06
2022-08-27T20:40:12.960Z,100451.00
2022-08-27T20:42:39.471Z,100451.00
2022-08-27T20:45:11.179Z,100452.53
2022-08-27T20:47:38.809Z,100436.84
2022-08-27T20:50:06.401Z,100446.88
2022-08-27T20:52:34.241Z,100451.47
2022-08-27T20:55:00.591Z,100455.59
2022-08-27T20:57:26.956Z,100457.47
2022-08-27T21:00:11.932Z,100452.06
2022-08-27T21:02:38.406Z,100455.59
2022-08-27T21:05:11.676Z,100458.81
2022-08-27T21:07:38.250Z,100461.75
2022-08-27T21:10:06.333Z,100459.53
2022-08-27T21:12:33.515Z,100456.97
2022-08-27T21:15:02.037Z,100463.94
2022-08-27T21:17:28.834Z,100460.66
2022-08-27T21:19:56.113Z,100463.38
2022-08-27T21:22:23.477Z,100458.44
2022-08-27T21:24:50.215Z,100466.09
2022-08-27T21:27:18.543Z,100465.25
2022-08-27T21:29:45.081Z,100464.44
2022-08-27T21:32:12.051Z,100467.72
2022-08-27T21:34:38.501Z,100456.53
2022-08-27T21:37:05.068Z,100468.03
2022-08-27T21:39:32.784Z,100474.31
2022-08-27T21:42:01.803Z,100468.28
2022-08-27T21:44:29.887Z,100463.28
2022-08-27T21:46:56.906Z,100473.59
2022-08-27T21:49:23.448Z,100462.91
2022-08-27T21:51:49.822Z,100470.00
2022-08-27T21:54:16.327Z,100473.50
2022-08-27T21:56:43.297Z,100473.75
2022-08-27T21:59:09.842Z,100476.47
2022-08-27T22:01:36.637Z,100470.81
2022-08-27T22:04:03.406Z,100478.13
2022-08-27T22:06:30.068Z,100475.41
2022-08-27T22:08:56.557Z,100481.63
2022-08-27T22:11:24.415Z,100484.34
2022-08-27T22:13:51.221Z,100470.13
2022-08-27T22:16:17.837Z,100486.97
2022-08-27T22:18:44.237Z,100486.16
2022-08-27T22:21:10.893Z,100475.53
2022-08-27T22:23:37.217Z,100480.16
2022-08-27T22:26:04.285Z,100475.78
2022-08-27T22:28:30.738Z,100471.31
2022-08-27T22:30:57.308Z,100457.34
2022-08-27T22:33:23.850Z,100470.25
2022-08-27T22:35:50.245Z,100470.75
2022-08-27T22:38:16.643Z,100461.25
2022-08-27T22:40:43.203Z,100463.38
2022-08-27T22:43:10.945Z,100470.78
2022-08-27T22:45:37.483Z,100469.69
2022-08-27T22:48:03.981Z,100471.69
2022-08-27T22:50:30.367Z,100473.59
2022-08-27T22:52:56.793Z,100474.88
2022-08-27T22:55:23.666Z,100475.47
2022-08-27T22:57:52.902Z,100473.34
2022-08-27T23:00:31.640Z,100467.09
2022-08-27T23:02:59.130Z,100471.69
2022-08-27T23:05:26.133Z,100466.41
2022-08-27T23:07:53.307Z,100467.22
2022-08-27T23:10:24.007Z,100458.75
2022-08-27T23:12:53.435Z,100461.59
2022-08-27T23:15:22.875Z,100468.81
2022-08-27T23:17:49.371Z,100465.28
2022-08-27T23:20:16.797Z,100475.03
2022-08-27T23:22:43.677Z,100471.84
2022-08-27T23:25:43.529Z,100478.34
2022-08-27T23:28:14.476Z,100460.25
2022-08-27T23:33:09.704Z,100470.47
2022-08-27T23:35:36.150Z,100466.44
2022-08-27T23:38:02.660Z,100468.69
2022-08-27T23:40:29.106Z,100462.44
2022-08-27T23:42:55.855Z,100451.41
2022-08-27T23:45:25.128Z,100462.69
2022-08-27T23:47:51.572Z,100464.81
2022-08-27T23:50:18.228Z,100461.50
2022-08-27T23:52:44.718Z,100457.97
2022-08-27T23:55:12.106Z,100465.41
2022-08-27T23:57:39.661Z,100470.81
